Little Rock, AR

08:27 CDT le 24 octobre 2014 (GMT -0500)
Heights | Change Station
CLOSE
Current Station
Stations météorologiques personnelles
Location: Little Rock, AR
Altitude: 581 ft
Stations météo à proximité

Alt. 581 ft 34.77 °N, 92.33 °W | Updated 23 seconds ago

Partly Cloudy
Partiellement nuageux
54.1 ° F
Paraît 54.1 ° F
N
0.0
Vent Variable Vent de Nord
Gusts 0.0 mph

Aujourd'hui
Haut(e) -- | Bas -- ° F
--% Risque de précip.
Hier
Haut(e) -- | Bas -- ° F
Precip. -- pouce
7:22 AM 6:23 PM
Nouvelle lune, 0% visible
Pression 30.18 pouce
Visibilité 10.0 Miles terrestres
Nuages Peu 25000 ft
Point de rosée 43 ° F
Humidité 66%
Précipitations 0.00 pouce
Profondeur de la couche neigeuse Non disponible.
UV 0 sur 12
Pollen 3.60 sur 12
Ozone Bon
PM2.5 Moyen
Flu Activity Sporadic
METAR KLIT 241253Z 00000KT 10SM FEW250 09/07 A3017 RMK AO2 SLP218 T00940072

More Conditions Fewer Conditions

Pression 30.18 pouce
Visibilité 10.0 Miles terrestres
Nuages Peu 25000 ft
Point de rosée 43 ° F
Humidité 66%
Précipitations 0.00 pouce
Profondeur de la couche neigeuse Non disponible.
UV 0 sur 12
Pollen 3.60 sur 12
Ozone Bon
PM2.5 Moyen
Flu Activity Sporadic
METAR KLIT 241253Z 00000KT 10SM FEW250 09/07 A3017 RMK AO2 SLP218 T00940072

More Conditions Fewer Conditions

10-Day Weather Forecast

Almanac

Astronomie

Oct. 24, 2014 Lever Coucher
Temps réel 07:22 CDT 18:23 CDT
Crépuscule civil 06:56 CDT 18:49 CDT
Crépuscule nautique 06:27 CDT 19:18 CDT
Crépuscule astronomique 05:57 CDT 19:48 CDT
Lune 08:00 CDT 19:05 CDT
Durée de lumière visible 11h 52m
Longueur du jour
11h 01m
Tomorrow will be 2m 0s shorter.
Nouvelle lune, 0% of the Moon is Illuminated
Aujourd'hui
Nouvelle lune
Oct 30
Premier quartier
Nov 6
Pleine lune
Nov 14
Dernier quartier
Nov 22
Nouveau

Extrêmes aujourd'hui

State Highs State Lows

Community

WunderPhotos

Upload Photos

1,764,549 Photos téléchargées !

WunderBlogs® & News

Nearby

Qualité de l'air

  Qualité de l'air Indice de la qualité de l'air Polluant
Hier Moyen
PM2.5
Hier Bon
OZONE
Actuel Moyen
PM2.5
Actuel Bon
OZONE
vendredi Bon
OZONE

Épaisseur de neige

Station Depth Altitude
Pas de nouvelles chutes de neige

Activité sismique

Ville Distance Mag. Time & Date
No recent earthquake activity has been reported nearby.
Minimum magnitude displayed is 2.5.

Températures des eaux côtières

Lieu Température
Aucun rapport de station

Stations météo à proximité